createdAt,value
2022-09-28T00:04:02.955Z,12.02
2022-09-28T00:09:04.785Z,12.05
2022-09-28T00:14:07.365Z,12.08
2022-09-28T00:19:08.959Z,12.08
2022-09-28T00:24:13.237Z,12.10
2022-09-28T00:29:26.911Z,12.11
2022-09-28T00:34:31.685Z,12.12
2022-09-28T00:39:33.135Z,12.12
2022-09-28T00:44:37.442Z,12.09
2022-09-28T00:49:47.622Z,12.02
2022-09-28T00:54:50.669Z,11.92
2022-09-28T00:59:52.617Z,11.83
2022-09-28T01:04:54.232Z,11.76
2022-09-28T01:09:56.241Z,11.74
2022-09-28T01:14:58.244Z,11.73
2022-09-28T01:19:59.849Z,11.74
2022-09-28T01:25:07.586Z,11.77
2022-09-28T01:30:10.425Z,11.76
2022-09-28T01:35:18.383Z,11.75
2022-09-28T01:40:22.074Z,11.76
2022-09-28T01:45:27.100Z,11.79
2022-09-28T01:50:29.938Z,11.82
2022-09-28T01:55:33.996Z,11.84
2022-09-28T02:00:39.464Z,11.85
2022-09-28T02:05:42.494Z,11.87
2022-09-28T02:11:04.398Z,11.90
2022-09-28T02:16:41.634Z,11.88
2022-09-28T02:21:55.245Z,11.85
2022-09-28T02:26:58.891Z,11.83
2022-09-28T02:32:05.560Z,11.83
2022-09-28T02:37:07.746Z,11.85
2022-09-28T02:42:23.421Z,11.82
2022-09-28T02:47:30.919Z,11.82
2022-09-28T02:52:51.486Z,11.81
2022-09-28T02:57:58.781Z,11.79
2022-09-28T03:03:06.402Z,11.77
2022-09-28T03:08:15.965Z,11.79
2022-09-28T03:13:17.893Z,11.78
2022-09-28T03:18:19.212Z,11.77
2022-09-28T03:23:24.652Z,11.74
2022-09-28T03:28:26.969Z,11.71
2022-09-28T03:33:28.498Z,11.71
2022-09-28T03:38:29.859Z,11.74
2022-09-28T03:43:31.443Z,11.79
2022-09-28T03:48:35.725Z,11.88
2022-09-28T03:53:37.470Z,11.94
2022-09-28T03:58:38.895Z,12.01
2022-09-28T04:03:40.810Z,12.07
2022-09-28T04:08:43.200Z,12.12
2022-09-28T04:13:47.803Z,12.14
2022-09-28T04:18:49.140Z,12.15
2022-09-28T04:24:08.886Z,12.14
2022-09-28T04:29:17.127Z,12.12
2022-09-28T04:34:23.201Z,12.10
2022-09-28T04:39:24.660Z,12.09
2022-09-28T04:44:28.649Z,12.07
2022-09-28T04:49:36.904Z,12.05
2022-09-28T04:54:43.462Z,12.02
2022-09-28T04:59:45.617Z,12.02
2022-09-28T05:04:46.995Z,12.02
2022-09-28T05:10:07.347Z,11.98
2022-09-28T05:15:09.766Z,11.96
2022-09-28T05:20:11.714Z,11.94
2022-09-28T05:25:13.205Z,11.97
2022-09-28T05:30:49.870Z,11.98
2022-09-28T05:36:03.541Z,12.01
2022-09-28T05:41:06.696Z,12.07
2022-09-28T05:46:08.307Z,12.12
2022-09-28T05:51:12.849Z,12.17
2022-09-28T05:56:14.114Z,12.19
2022-09-28T06:01:18.732Z,12.24
2022-09-28T06:06:20.967Z,12.28
2022-09-28T06:11:26.863Z,12.35
2022-09-28T06:16:29.519Z,12.39
2022-09-28T06:21:30.888Z,12.45
2022-09-28T06:26:32.378Z,12.51
2022-09-28T06:31:33.946Z,12.58
2022-09-28T06:36:36.393Z,12.64
2022-09-28T06:41:37.898Z,12.73
2022-09-28T06:46:48.467Z,12.80
2022-09-28T06:52:04.526Z,12.84
2022-09-28T06:57:25.773Z,12.86
2022-09-28T07:02:27.451Z,12.90
2022-09-28T07:07:48.821Z,12.96
2022-09-28T07:12:56.989Z,13.01
2022-09-28T07:18:05.454Z,13.03
2022-09-28T07:23:18.647Z,13.04
2022-09-28T07:28:59.181Z,13.04
2022-09-28T07:34:13.024Z,13.09
2022-09-28T07:39:54.547Z,13.15
2022-09-28T07:44:56.804Z,13.14
2022-09-28T07:49:58.473Z,13.14
2022-09-28T07:55:18.618Z,13.17
2022-09-28T08:00:34.380Z,13.24
2022-09-28T08:05:36.712Z,13.25
2022-09-28T08:10:38.263Z,13.25
2022-09-28T08:16:01.829Z,13.23
2022-09-28T08:21:33.061Z,13.23
2022-09-28T08:26:34.409Z,13.16
2022-09-28T08:31:36.229Z,13.09
2022-09-28T08:36:45.760Z,12.99
2022-09-28T08:42:39.662Z,12.94
2022-09-28T08:48:19.346Z,12.94
2022-09-28T08:53:43.491Z,12.97
2022-09-28T08:59:12.022Z,13.00
2022-09-28T09:04:14.963Z,13.00
2022-09-28T09:09:54.078Z,12.95
2022-09-28T09:15:15.230Z,12.91
2022-09-28T09:20:25.221Z,12.93
2022-09-28T09:25:43.027Z,12.98
2022-09-28T09:30:55.803Z,13.00
2022-09-28T09:36:09.181Z,13.01
2022-09-28T09:41:46.289Z,12.92
2022-09-28T09:47:11.309Z,12.90
2022-09-28T09:52:29.540Z,12.95
2022-09-28T09:57:51.185Z,12.99
2022-09-28T10:03:23.543Z,12.95
2022-09-28T10:08:28.078Z,13.01
2022-09-28T10:13:32.071Z,13.12
2022-09-28T10:18:37.553Z,13.19
2022-09-28T10:23:44.783Z,13.16
2022-09-28T10:28:54.065Z,13.13
2022-09-28T10:33:57.519Z,13.26
2022-09-28T10:38:58.976Z,13.35
2022-09-28T10:44:07.234Z,13.46
2022-09-28T10:49:24.923Z,13.62
2022-09-28T10:54:31.721Z,13.63
2022-09-28T10:59:39.354Z,13.68
2022-09-28T11:05:01.269Z,13.68
2022-09-28T11:10:18.371Z,13.59
2022-09-28T11:15:21.350Z,13.57
2022-09-28T11:20:27.929Z,13.70
2022-09-28T11:25:32.678Z,14.03
2022-09-28T11:30:42.939Z,14.05
2022-09-28T11:36:05.878Z,14.10
2022-09-28T11:41:26.421Z,14.09
2022-09-28T11:46:35.442Z,14.01
2022-09-28T11:51:43.636Z,13.87
2022-09-28T11:56:47.553Z,13.79
2022-09-28T12:01:51.593Z,13.81
2022-09-28T12:07:32.746Z,13.83
2022-09-28T12:12:40.174Z,13.72
2022-09-28T12:17:54.075Z,13.48
2022-09-28T12:23:11.813Z,13.33
2022-09-28T12:28:21.853Z,13.30
2022-09-28T12:33:23.166Z,13.42
2022-09-28T12:38:27.580Z,13.45
2022-09-28T12:43:33.273Z,13.43
2022-09-28T12:50:07.286Z,13.38
2022-09-28T12:54:43.737Z,13.24
2022-09-28T13:00:01.878Z,13.13
2022-09-28T13:05:22.041Z,13.02
2022-09-28T13:10:32.544Z,13.06
2022-09-28T13:15:34.928Z,13.29
2022-09-28T13:20:36.708Z,13.37
2022-09-28T13:25:40.815Z,13.43
2022-09-28T13:30:43.939Z,13.39
2022-09-28T13:35:45.434Z,13.28
2022-09-28T13:41:04.947Z,13.23
2022-09-28T13:46:21.183Z,13.38
2022-09-28T13:51:39.297Z,13.42
2022-09-28T13:56:44.085Z,13.36
2022-09-28T14:01:52.594Z,13.31
2022-09-28T14:06:57.027Z,13.25
2022-09-28T14:11:59.754Z,13.17
2022-09-28T14:17:27.601Z,13.05
2022-09-28T14:22:40.521Z,12.95
2022-09-28T14:27:55.547Z,12.79
2022-09-28T14:32:58.506Z,12.75
2022-09-28T14:38:42.609Z,12.69
2022-09-28T14:43:44.274Z,12.75
2022-09-28T14:48:53.181Z,12.81
2022-09-28T14:53:56.281Z,12.88
2022-09-28T14:58:58.014Z,12.93
2022-09-28T15:04:04.355Z,13.01
2022-09-28T15:09:05.714Z,13.13
2022-09-28T15:14:10.954Z,13.13
2022-09-28T15:19:24.325Z,13.04
2022-09-28T15:24:27.674Z,12.89
2022-09-28T15:29:33.186Z,12.88
2022-09-28T15:34:54.624Z,12.82
2022-09-28T15:39:57.986Z,12.77
2022-09-28T15:45:24.735Z,12.79
2022-09-28T15:50:28.132Z,12.77
2022-09-28T15:55:42.270Z,12.78
2022-09-28T16:00:45.199Z,12.83
2022-09-28T16:05:58.690Z,12.84
2022-09-28T16:11:03.337Z,12.84
2022-09-28T16:16:04.797Z,12.87
2022-09-28T16:21:24.416Z,12.91
2022-09-28T16:26:32.025Z,12.92
2022-09-28T16:31:34.353Z,12.96
2022-09-28T16:36:42.590Z,12.97
2022-09-28T16:41:48.174Z,13.01
2022-09-28T16:46:50.860Z,13.11
2022-09-28T16:51:52.549Z,13.18
2022-09-28T16:56:53.859Z,13.20
2022-09-28T17:01:56.521Z,13.23
2022-09-28T17:06:58.264Z,13.29
2022-09-28T17:11:59.662Z,13.33
2022-09-28T17:17:08.901Z,13.35
2022-09-28T17:22:11.087Z,13.36
2022-09-28T17:27:16.488Z,13.36
2022-09-28T17:32:18.661Z,13.35
2022-09-28T17:37:19.969Z,13.34
2022-09-28T17:42:21.297Z,13.30
2022-09-28T17:47:22.740Z,13.24
2022-09-28T17:52:24.300Z,13.18
2022-09-28T17:57:25.745Z,13.12
2022-09-28T18:02:27.045Z,13.04
2022-09-28T18:07:30.876Z,12.95
2022-09-28T18:12:32.462Z,12.88
2022-09-28T18:17:33.824Z,12.84
2022-09-28T18:22:35.151Z,12.79
2022-09-28T18:27:36.708Z,12.75
2022-09-28T18:32:38.426Z,12.74
2022-09-28T18:37:40.334Z,12.77
2022-09-28T18:42:42.137Z,12.77
2022-09-28T18:47:43.459Z,12.73
2022-09-28T18:52:45.012Z,12.63
2022-09-28T18:57:46.924Z,12.55
2022-09-28T19:02:48.431Z,12.50
2022-09-28T19:07:49.910Z,12.44
2022-09-28T19:12:51.991Z,12.37
2022-09-28T19:17:53.339Z,12.28
2022-09-28T19:22:55.080Z,12.18
2022-09-28T19:27:56.445Z,12.07
2022-09-28T19:32:57.787Z,11.97
2022-09-28T19:37:59.139Z,11.94
2022-09-28T19:43:00.483Z,11.91
2022-09-28T19:48:03.036Z,11.89
2022-09-28T19:53:06.604Z,11.87
2022-09-28T19:58:08.722Z,11.83
2022-09-28T20:03:10.051Z,11.80
2022-09-28T20:08:12.096Z,11.76
2022-09-28T20:13:13.431Z,11.76
2022-09-28T20:18:14.952Z,11.74
2022-09-28T20:23:16.370Z,11.74
2022-09-28T20:28:17.720Z,11.75
2022-09-28T20:33:28.267Z,11.72
2022-09-28T20:38:30.171Z,11.68
2022-09-28T20:43:31.486Z,11.66
2022-09-28T20:48:32.878Z,11.59
2022-09-28T20:53:34.168Z,11.47
2022-09-28T20:58:37.930Z,11.36
2022-09-28T21:03:39.474Z,11.27
2022-09-28T21:08:41.151Z,11.20
2022-09-28T21:13:43.281Z,11.14
2022-09-28T21:18:44.857Z,11.08
2022-09-28T21:23:46.353Z,11.02
2022-09-28T21:28:47.817Z,10.99
2022-09-28T21:33:49.681Z,10.98
2022-09-28T21:38:50.960Z,10.96
2022-09-28T21:43:52.293Z,10.92
2022-09-28T21:48:53.740Z,10.91
2022-09-28T21:53:55.273Z,10.86
2022-09-28T21:58:56.571Z,10.83
2022-09-28T22:03:58.017Z,10.80
2022-09-28T22:08:59.288Z,10.77
2022-09-28T22:14:00.558Z,10.74
2022-09-28T22:19:01.832Z,10.72
2022-09-28T22:24:04.459Z,10.70
2022-09-28T22:29:07.453Z,10.71
2022-09-28T22:34:09.181Z,10.77
2022-09-28T22:39:10.458Z,10.82
2022-09-28T22:44:11.798Z,10.87
2022-09-28T22:49:13.217Z,10.92
2022-09-28T22:54:16.305Z,10.95
2022-09-28T22:59:17.718Z,10.95
2022-09-28T23:04:19.034Z,10.94
2022-09-28T23:09:20.806Z,10.93
2022-09-28T23:14:22.658Z,10.91
2022-09-28T23:19:23.934Z,10.92
2022-09-28T23:24:25.242Z,10.89
2022-09-28T23:29:26.977Z,10.87
2022-09-28T23:34:28.256Z,10.84
2022-09-28T23:39:29.519Z,10.78
2022-09-28T23:44:33.944Z,10.68
2022-09-28T23:49:35.249Z,10.66
2022-09-28T23:54:36.525Z,10.66
2022-09-28T23:59:37.817Z,10.67
